createdAt,value
2023-04-11T00:03:42.973Z,98.25
2023-04-11T00:08:48.922Z,99.46
2023-04-11T00:13:51.854Z,100.00
2023-04-11T00:18:57.324Z,100.00
2023-04-11T00:24:00.418Z,100.00
2023-04-11T00:29:03.193Z,100.00
2023-04-11T00:34:05.908Z,100.00
2023-04-11T00:39:11.577Z,100.00
2023-04-11T00:44:14.839Z,100.00
2023-04-11T00:49:17.662Z,100.00
2023-04-11T00:54:20.477Z,100.00
2023-04-11T00:59:23.521Z,100.00
2023-04-11T01:04:26.383Z,100.00
2023-04-11T01:09:30.072Z,100.00
2023-04-11T01:14:33.035Z,100.00
2023-04-11T01:19:35.820Z,100.00
2023-04-11T01:24:38.625Z,100.00
2023-04-11T01:29:41.426Z,100.00
2023-04-11T01:34:47.713Z,100.00
2023-04-11T01:39:50.615Z,100.00
2023-04-11T01:44:54.446Z,100.00
2023-04-11T01:49:57.233Z,100.00
2023-04-11T01:54:59.913Z,100.00
2023-04-11T02:00:03.903Z,100.00
2023-04-11T02:05:07.069Z,100.00
2023-04-11T02:10:09.944Z,100.00
2023-04-11T02:15:12.603Z,100.00
2023-04-11T02:20:15.586Z,100.00
2023-04-11T02:25:18.385Z,100.00
2023-04-11T02:30:21.120Z,100.00
2023-04-11T02:35:23.998Z,100.00
2023-04-11T02:40:26.734Z,100.00
2023-04-11T02:45:29.596Z,100.00
2023-04-11T02:50:32.621Z,100.00
2023-04-11T02:55:35.500Z,100.00
2023-04-11T03:00:38.248Z,100.00
2023-04-11T03:05:40.970Z,100.00
2023-04-11T03:10:43.703Z,100.00
2023-04-11T03:15:46.544Z,100.00
2023-04-11T03:20:50.864Z,100.00
2023-04-11T03:25:54.274Z,100.00
2023-04-11T03:30:57.303Z,100.00
2023-04-11T03:36:00.928Z,100.00
2023-04-11T03:41:04.042Z,100.00
2023-04-11T03:46:06.940Z,100.00
2023-04-11T03:51:09.824Z,100.00
2023-04-11T03:56:12.801Z,100.00
2023-04-11T04:01:16.536Z,100.00
2023-04-11T04:06:19.262Z,100.00
2023-04-11T04:11:22.158Z,100.00
2023-04-11T04:16:24.895Z,100.00
2023-04-11T04:21:33.049Z,100.00
2023-04-11T04:26:38.149Z,100.00
2023-04-11T04:31:41.950Z,100.00
2023-04-11T04:36:48.040Z,100.00
2023-04-11T04:42:01.793Z,100.00
2023-04-11T04:47:04.502Z,100.00
2023-04-11T04:52:07.255Z,100.00
2023-04-11T04:57:10.094Z,100.00
2023-04-11T05:02:12.961Z,98.00
2023-04-11T05:07:16.194Z,93.40
2023-04-11T05:12:20.439Z,89.20
2023-04-11T05:17:25.368Z,86.11
2023-04-11T05:22:28.491Z,83.05
2023-04-11T05:27:31.206Z,80.56
2023-04-11T05:32:34.254Z,77.32
2023-04-11T05:37:37.353Z,75.23
2023-04-11T05:42:40.366Z,73.46
2023-04-11T05:47:43.212Z,71.47
2023-04-11T05:52:46.101Z,69.29
2023-04-11T05:57:48.834Z,66.50
2023-04-11T06:02:52.990Z,64.93
2023-04-11T06:07:57.102Z,62.89
2023-04-11T06:12:59.896Z,60.71
2023-04-11T06:18:02.657Z,58.97
2023-04-11T06:23:05.725Z,57.59
2023-04-11T06:28:08.504Z,57.03
2023-04-11T06:33:11.615Z,53.84
2023-04-11T06:38:14.826Z,50.91
2023-04-11T06:43:17.695Z,49.28
2023-04-11T06:48:21.289Z,46.73
2023-04-11T06:53:24.298Z,45.79
2023-04-11T06:58:27.058Z,45.74
2023-04-11T07:03:31.127Z,43.77
2023-04-11T07:08:34.056Z,42.17
2023-04-11T07:13:36.907Z,39.96
2023-04-11T07:18:39.701Z,38.28
2023-04-11T07:23:43.209Z,37.49
2023-04-11T07:28:47.569Z,34.52
2023-04-11T07:33:51.313Z,33.38
2023-04-11T07:38:54.215Z,33.05
2023-04-11T07:43:57.177Z,32.06
2023-04-11T07:49:00.196Z,31.15
2023-04-11T07:54:03.508Z,30.91
2023-04-11T07:59:06.265Z,30.83
2023-04-11T08:04:09.188Z,30.46
2023-04-11T08:09:12.163Z,29.80
2023-04-11T08:14:15.383Z,29.24
2023-04-11T08:19:18.442Z,28.60
2023-04-11T08:24:21.140Z,27.87
2023-04-11T08:29:23.847Z,26.74
2023-04-11T08:34:26.568Z,26.40
2023-04-11T08:39:29.352Z,25.81
2023-04-11T08:44:32.116Z,25.21
2023-04-11T08:49:34.811Z,24.49
2023-04-11T08:54:37.544Z,24.02
2023-04-11T08:59:51.212Z,24.04
2023-04-11T09:04:54.785Z,24.26
2023-04-11T09:09:57.552Z,24.42
2023-04-11T09:15:18.667Z,24.22
2023-04-11T09:20:29.537Z,24.46
2023-04-11T09:25:44.051Z,24.95
2023-04-11T09:30:51.432Z,25.48
2023-04-11T09:35:56.193Z,25.58
2023-04-11T09:41:04.173Z,26.10
2023-04-11T09:46:12.116Z,25.56
2023-04-11T09:51:28.214Z,24.27
2023-04-11T09:56:37.696Z,24.54
2023-04-11T10:01:41.199Z,25.86
2023-04-11T10:07:13.008Z,27.56
2023-04-11T10:12:31.796Z,28.16
2023-04-11T10:17:34.937Z,27.89
2023-04-11T10:22:43.951Z,30.94
2023-04-11T10:28:00.971Z,33.87
2023-04-11T10:33:16.153Z,36.43
2023-04-11T10:38:37.649Z,38.57
2023-04-11T10:43:40.502Z,39.18
2023-04-11T10:49:00.843Z,39.04
2023-04-11T10:54:04.029Z,38.04
2023-04-11T10:59:07.631Z,37.22
2023-04-11T11:04:12.076Z,36.77
2023-04-11T11:09:26.468Z,36.20
2023-04-11T11:14:30.532Z,35.34
2023-04-11T11:19:33.993Z,34.86
2023-04-11T11:24:36.705Z,34.92
2023-04-11T11:29:40.119Z,35.59
2023-04-11T11:34:43.061Z,35.91
2023-04-11T11:39:46.021Z,35.73
2023-04-11T11:44:49.058Z,35.46
2023-04-11T11:49:55.675Z,35.60
2023-04-11T11:54:58.857Z,36.61
2023-04-11T12:00:05.944Z,37.23
2023-04-11T12:05:11.748Z,37.37
2023-04-11T12:10:17.113Z,38.25
2023-04-11T12:15:21.934Z,39.01
2023-04-11T12:20:26.855Z,39.99
2023-04-11T12:25:30.352Z,38.88
2023-04-11T12:30:34.124Z,36.31
2023-04-11T12:35:37.235Z,33.99
2023-04-11T12:40:40.154Z,33.17
2023-04-11T12:45:43.044Z,35.25
2023-04-11T12:50:45.776Z,35.80
2023-04-11T12:55:48.482Z,34.95
2023-04-11T13:00:51.197Z,35.17
2023-04-11T13:05:53.959Z,34.93
2023-04-11T13:10:56.661Z,33.93
2023-04-11T13:15:59.403Z,34.89
2023-04-11T13:21:02.129Z,36.35
2023-04-11T13:26:04.938Z,36.94
2023-04-11T13:31:10.499Z,38.14
2023-04-11T13:36:13.812Z,39.82
2023-04-11T13:41:16.731Z,40.28
2023-04-11T13:46:21.985Z,40.40
2023-04-11T13:51:24.713Z,39.42
2023-04-11T13:56:27.634Z,39.38
2023-04-11T14:01:30.410Z,39.17
2023-04-11T14:06:35.355Z,40.19
2023-04-11T14:11:38.064Z,40.36
2023-04-11T14:16:40.906Z,40.21
2023-04-11T14:21:43.743Z,41.33
2023-04-11T14:26:46.559Z,41.50
2023-04-11T14:31:50.014Z,41.27
2023-04-11T14:36:52.916Z,41.55
2023-04-11T14:41:56.495Z,41.59
2023-04-11T14:46:59.319Z,41.76
2023-04-11T14:52:02.314Z,41.78
2023-04-11T14:57:05.927Z,41.48
2023-04-11T15:02:09.054Z,41.05
2023-04-11T15:07:12.899Z,40.07
2023-04-11T15:12:15.596Z,39.83
2023-04-11T15:17:18.755Z,38.59
2023-04-11T15:22:22.092Z,38.90
2023-04-11T15:27:24.773Z,39.03
2023-04-11T15:32:27.582Z,38.65
2023-04-11T15:37:30.429Z,38.97
2023-04-11T15:42:35.584Z,38.76
2023-04-11T15:47:38.492Z,39.68
2023-04-11T15:52:41.358Z,41.00
2023-04-11T15:57:44.292Z,41.92
2023-04-11T16:02:47.402Z,41.78
2023-04-11T16:07:50.310Z,41.87
2023-04-11T16:12:53.279Z,42.21
2023-04-11T16:17:56.607Z,42.20
2023-04-11T16:22:59.480Z,42.60
2023-04-11T16:28:02.331Z,43.06
2023-04-11T16:33:05.208Z,43.75
2023-04-11T16:38:08.125Z,44.74
2023-04-11T16:43:11.223Z,45.74
2023-04-11T16:48:13.923Z,47.17
2023-04-11T16:53:18.672Z,48.33
2023-04-11T16:58:21.396Z,49.15
2023-04-11T17:03:24.739Z,49.91
2023-04-11T17:08:27.991Z,50.68
2023-04-11T17:13:30.774Z,51.53
2023-04-11T17:18:35.448Z,52.07
2023-04-11T17:23:42.956Z,52.61
2023-04-11T17:28:59.285Z,53.07
2023-04-11T17:34:02.188Z,53.66
2023-04-11T17:39:04.900Z,54.14
2023-04-11T17:44:07.680Z,54.68
2023-04-11T17:49:10.582Z,55.12
2023-04-11T17:54:13.379Z,55.55
2023-04-11T17:59:19.467Z,55.83
2023-04-11T18:04:22.361Z,56.31
2023-04-11T18:09:28.196Z,56.88
2023-04-11T18:14:31.148Z,57.35
2023-04-11T18:19:34.243Z,57.76
2023-04-11T18:24:37.055Z,58.16
2023-04-11T18:29:39.791Z,58.26
2023-04-11T18:34:42.509Z,58.54
2023-04-11T18:39:46.010Z,58.53
2023-04-11T18:44:48.882Z,58.81
2023-04-11T18:49:51.856Z,58.90
2023-04-11T18:54:55.524Z,59.06
2023-04-11T19:00:01.746Z,59.28
2023-04-11T19:05:13.482Z,59.62
2023-04-11T19:10:16.809Z,59.87
2023-04-11T19:15:19.713Z,60.04
2023-04-11T19:20:24.872Z,60.22
2023-04-11T19:25:27.608Z,60.33
2023-04-11T19:30:30.547Z,60.26
2023-04-11T19:35:33.303Z,60.62
2023-04-11T19:40:36.387Z,61.51
2023-04-11T19:45:39.160Z,61.93
2023-04-11T19:50:42.093Z,62.83
2023-04-11T19:55:46.021Z,63.25
2023-04-11T20:00:48.961Z,64.26
2023-04-11T20:05:51.803Z,65.85
2023-04-11T20:10:54.501Z,68.53
2023-04-11T20:15:57.185Z,70.37
2023-04-11T20:21:00.307Z,72.42
2023-04-11T20:26:03.046Z,73.17
2023-04-11T20:31:07.474Z,73.80
2023-04-11T20:36:11.272Z,74.30
2023-04-11T20:41:14.215Z,74.98
2023-04-11T20:46:18.045Z,75.20
2023-04-11T20:51:20.815Z,76.05
2023-04-11T20:56:24.154Z,76.39
2023-04-11T21:01:27.396Z,77.26
2023-04-11T21:06:31.906Z,77.69
2023-04-11T21:11:34.663Z,78.99
2023-04-11T21:16:37.338Z,79.25
2023-04-11T21:21:40.765Z,79.33
2023-04-11T21:26:43.520Z,79.73
2023-04-11T21:31:46.297Z,79.69
2023-04-11T21:36:49.944Z,80.09
2023-04-11T21:41:52.646Z,81.09
2023-04-11T21:46:55.447Z,82.04
2023-04-11T21:51:58.369Z,82.13
2023-04-11T21:57:01.767Z,83.03
2023-04-11T22:02:05.421Z,83.05
2023-04-11T22:07:08.508Z,83.52
2023-04-11T22:12:11.299Z,83.91
2023-04-11T22:17:14.609Z,84.34
2023-04-11T22:22:18.131Z,85.13
2023-04-11T22:27:20.944Z,85.47
2023-04-11T22:32:24.273Z,86.25
2023-04-11T22:37:27.327Z,87.35
2023-04-11T22:42:30.181Z,88.22
2023-04-11T22:47:34.597Z,89.08
2023-04-11T22:52:38.025Z,89.58
2023-04-11T22:57:43.650Z,89.61
2023-04-11T23:02:47.190Z,90.33
2023-04-11T23:07:50.312Z,92.07
2023-04-11T23:12:53.209Z,92.90
2023-04-11T23:17:55.906Z,93.58
2023-04-11T23:22:59.227Z,94.47
2023-04-11T23:28:02.324Z,95.26
2023-04-11T23:33:08.824Z,96.05
2023-04-11T23:38:12.021Z,96.41
2023-04-11T23:43:14.727Z,96.64
2023-04-11T23:48:17.380Z,96.87
2023-04-11T23:53:20.069Z,96.95
2023-04-11T23:58:22.832Z,97.30
